createdAt,value
2022-11-18T00:01:33.371Z,15.87
2022-11-18T00:04:02.272Z,17.53
2022-11-18T00:06:31.494Z,14.87
2022-11-18T00:09:01.439Z,17.83
2022-11-18T00:11:48.103Z,17.57
2022-11-18T00:14:21.452Z,17.17
2022-11-18T00:16:58.492Z,18.27
2022-11-18T00:19:38.672Z,18.23
2022-11-18T00:22:09.855Z,17.03
2022-11-18T00:24:38.534Z,19.63
2022-11-18T00:27:06.988Z,17.40
2022-11-18T00:29:35.426Z,16.47
2022-11-18T00:32:03.910Z,20.03
2022-11-18T00:34:32.607Z,18.60
2022-11-18T00:37:01.182Z,19.10
2022-11-18T00:39:29.919Z,18.27
2022-11-18T00:42:15.731Z,17.93
2022-11-18T00:44:44.456Z,19.27
2022-11-18T00:47:12.999Z,17.77
2022-11-18T00:49:41.522Z,19.97
2022-11-18T00:52:10.139Z,18.23
2022-11-18T00:54:38.661Z,21.23
2022-11-18T00:57:07.112Z,21.67
2022-11-18T00:59:35.659Z,19.10
2022-11-18T01:02:04.077Z,20.80
2022-11-18T01:04:32.759Z,21.83
2022-11-18T01:07:01.278Z,22.07
2022-11-18T01:09:30.269Z,21.77
2022-11-18T01:12:16.097Z,20.57
2022-11-18T01:14:44.725Z,22.50
2022-11-18T01:17:13.468Z,22.37
2022-11-18T01:19:41.981Z,20.53
2022-11-18T01:22:10.453Z,20.73
2022-11-18T01:24:38.944Z,23.13
2022-11-18T01:27:07.491Z,22.63
2022-11-18T01:29:35.938Z,22.73
2022-11-18T01:34:52.867Z,29.03
2022-11-18T01:37:21.295Z,23.50
2022-11-18T01:39:49.804Z,24.50
2022-11-18T01:42:19.117Z,25.13
2022-11-18T01:45:14.697Z,23.17
2022-11-18T01:48:06.195Z,24.23
2022-11-18T01:50:38.722Z,24.80
2022-11-18T01:53:14.397Z,24.10
2022-11-18T01:55:46.460Z,26.43
2022-11-18T01:58:22.874Z,29.20
2022-11-18T02:00:51.442Z,25.97
2022-11-18T02:03:20.010Z,24.50
2022-11-18T02:05:50.644Z,25.73
2022-11-18T02:08:20.553Z,24.63
2022-11-18T02:10:48.960Z,24.90
2022-11-18T02:13:17.640Z,26.17
2022-11-18T02:16:15.780Z,31.57
2022-11-18T02:18:57.112Z,25.63
2022-11-18T02:22:05.788Z,26.20
2022-11-18T02:24:52.697Z,23.67
2022-11-18T02:28:03.222Z,24.67
2022-11-18T02:30:36.034Z,25.67
2022-11-18T02:33:21.127Z,24.57
2022-11-18T02:36:33.336Z,26.27
2022-11-18T02:39:11.983Z,25.27
2022-11-18T02:41:43.918Z,25.93
2022-11-18T02:44:17.281Z,28.23
2022-11-18T02:46:51.022Z,27.43
2022-11-18T02:49:31.118Z,26.77
2022-11-18T02:52:00.933Z,26.77
2022-11-18T02:54:29.726Z,26.13
2022-11-18T02:56:59.222Z,26.50
2022-11-18T02:59:29.642Z,28.27
2022-11-18T03:01:58.371Z,28.13
2022-11-18T03:04:27.878Z,25.37
2022-11-18T03:07:08.088Z,27.30
2022-11-18T03:09:40.624Z,26.53
2022-11-18T03:12:26.286Z,28.00
2022-11-18T03:15:06.588Z,28.83
2022-11-18T03:17:46.170Z,27.17
2022-11-18T03:20:29.631Z,27.63
2022-11-18T03:23:33.814Z,26.70
2022-11-18T03:26:09.029Z,26.60
2022-11-18T03:28:57.905Z,24.50
2022-11-18T03:31:37.741Z,24.00
2022-11-18T03:34:22.230Z,27.10
2022-11-18T03:37:00.609Z,28.37
2022-11-18T03:39:33.506Z,28.13
2022-11-18T03:42:29.224Z,27.00
2022-11-18T03:45:15.921Z,31.27
2022-11-18T03:47:55.443Z,28.23
2022-11-18T03:50:32.111Z,25.97
2022-11-18T03:53:02.522Z,30.90
2022-11-18T03:55:43.940Z,26.70
2022-11-18T03:58:36.297Z,27.13
2022-11-18T04:01:17.842Z,28.53
2022-11-18T04:03:46.607Z,26.80
2022-11-18T04:06:41.370Z,26.50
2022-11-18T04:09:37.007Z,29.53
2022-11-18T04:12:11.263Z,26.83
2022-11-18T04:14:43.480Z,32.17
2022-11-18T04:17:21.814Z,29.67
2022-11-18T04:19:50.866Z,28.83
2022-11-18T04:22:20.171Z,26.23
2022-11-18T04:24:48.607Z,29.03
2022-11-18T04:27:17.112Z,30.70
2022-11-18T04:29:45.525Z,28.83
2022-11-18T04:32:14.467Z,32.50
2022-11-18T04:34:43.154Z,31.10
2022-11-18T04:37:11.579Z,33.53
2022-11-18T04:39:40.014Z,29.87
2022-11-18T04:42:08.459Z,30.50
2022-11-18T04:44:36.945Z,35.40
2022-11-18T04:47:07.650Z,32.50
2022-11-18T04:49:37.218Z,35.07
2022-11-18T04:52:07.606Z,32.43
2022-11-18T04:54:36.104Z,35.73
2022-11-18T04:57:04.600Z,32.13
2022-11-18T04:59:33.296Z,35.00
2022-11-18T05:02:02.169Z,33.70
2022-11-18T05:04:33.797Z,33.53
2022-11-18T05:07:04.727Z,37.80
2022-11-18T05:09:33.080Z,36.87
2022-11-18T05:12:19.903Z,38.73
2022-11-18T05:14:50.808Z,32.73
2022-11-18T05:17:20.295Z,41.70
2022-11-18T05:19:48.923Z,33.70
2022-11-18T05:22:17.820Z,36.80
2022-11-18T05:24:46.523Z,35.50
2022-11-18T05:27:15.410Z,38.00
2022-11-18T05:29:44.132Z,39.10
2022-11-18T05:32:13.094Z,32.77
2022-11-18T05:34:43.439Z,35.80
2022-11-18T05:37:12.140Z,31.67
2022-11-18T05:39:40.668Z,33.10
2022-11-18T05:42:27.074Z,37.97
2022-11-18T05:44:58.449Z,37.10
2022-11-18T05:47:27.894Z,35.93
2022-11-18T05:49:56.429Z,34.43
2022-11-18T05:52:25.061Z,31.70
2022-11-18T05:54:53.707Z,38.30
2022-11-18T05:57:22.199Z,33.73
2022-11-18T05:59:50.655Z,33.73
2022-11-18T06:02:25.485Z,31.77
2022-11-18T06:05:01.321Z,35.07
2022-11-18T06:07:38.647Z,30.20
2022-11-18T06:10:07.800Z,34.27
2022-11-18T06:12:43.606Z,35.07
2022-11-18T06:15:24.354Z,32.73
2022-11-18T06:18:03.030Z,33.47
2022-11-18T06:20:31.513Z,35.70
2022-11-18T06:23:01.929Z,35.57
2022-11-18T06:25:30.723Z,34.07
2022-11-18T06:28:02.077Z,34.47
2022-11-18T06:30:30.754Z,37.67
2022-11-18T06:32:59.311Z,31.40
2022-11-18T06:35:27.783Z,34.60
2022-11-18T06:37:56.343Z,34.63
2022-11-18T06:40:24.895Z,34.40
2022-11-18T06:43:10.831Z,33.87
2022-11-18T06:45:39.403Z,34.57
2022-11-18T06:48:06.935Z,33.93
2022-11-18T06:50:35.442Z,33.33
2022-11-18T06:53:03.956Z,35.00
2022-11-18T06:55:32.616Z,32.60
2022-11-18T06:58:01.109Z,33.77
2022-11-18T07:00:29.866Z,37.43
2022-11-18T07:02:58.477Z,36.53
2022-11-18T07:05:26.931Z,39.07
2022-11-18T07:07:55.526Z,36.30
2022-11-18T07:10:24.136Z,39.33
2022-11-18T07:12:52.601Z,35.83
2022-11-18T07:15:21.151Z,35.07
2022-11-18T07:17:49.631Z,35.83
2022-11-18T07:20:18.217Z,38.73
2022-11-18T07:22:46.700Z,37.90
2022-11-18T07:25:15.246Z,36.77
2022-11-18T07:27:43.730Z,37.07
2022-11-18T07:30:12.737Z,37.87
2022-11-18T07:32:41.268Z,32.90
2022-11-18T07:35:10.221Z,36.73
2022-11-18T07:37:38.708Z,37.47
2022-11-18T07:40:07.827Z,41.73
2022-11-18T07:42:42.799Z,38.57
2022-11-18T07:45:12.972Z,41.43
2022-11-18T07:47:41.492Z,40.67
2022-11-18T07:50:09.905Z,41.27
2022-11-18T07:52:38.425Z,42.37
2022-11-18T07:55:07.330Z,40.17
2022-11-18T07:57:35.791Z,44.70
2022-11-18T08:00:05.383Z,43.40
2022-11-18T08:02:33.864Z,44.83
2022-11-18T08:05:02.484Z,47.90
2022-11-18T08:07:31.093Z,44.93
2022-11-18T08:09:59.646Z,51.53
2022-11-18T08:12:30.784Z,50.40
2022-11-18T08:14:59.262Z,45.30
2022-11-18T08:17:27.750Z,50.07
2022-11-18T08:19:56.161Z,42.97
2022-11-18T08:22:24.653Z,49.53
2022-11-18T08:24:53.149Z,44.23
2022-11-18T08:27:21.642Z,44.43
2022-11-18T08:29:50.126Z,46.07
2022-11-18T08:32:18.685Z,43.70
2022-11-18T08:34:47.194Z,47.33
2022-11-18T08:37:15.687Z,48.00
2022-11-18T08:39:44.178Z,40.63
2022-11-18T08:42:12.741Z,50.83
2022-11-18T08:44:41.243Z,45.03
2022-11-18T08:47:09.801Z,42.77
2022-11-18T08:49:38.302Z,46.03
2022-11-18T08:52:06.906Z,45.43
2022-11-18T08:54:35.470Z,81.47
2022-11-18T08:57:04.026Z,49.90
2022-11-18T08:59:32.730Z,55.80
2022-11-18T09:02:01.226Z,45.13
2022-11-18T09:04:29.751Z,45.13
2022-11-18T09:06:58.257Z,48.70
2022-11-18T09:09:26.748Z,46.60
2022-11-18T09:11:55.299Z,46.17
2022-11-18T09:17:14.266Z,55.93
2022-11-18T09:19:47.708Z,49.23
2022-11-18T09:22:16.808Z,51.10
2022-11-18T09:24:45.394Z,47.13
2022-11-18T09:27:16.976Z,50.33
2022-11-18T09:29:46.478Z,47.80
2022-11-18T09:32:15.024Z,46.50
2022-11-18T09:34:43.496Z,47.63
2022-11-18T09:37:11.906Z,51.63
2022-11-18T09:39:40.443Z,48.40
2022-11-18T09:42:55.689Z,44.90
2022-11-18T09:45:25.528Z,43.70
2022-11-18T09:48:00.260Z,45.63
2022-11-18T09:53:27.973Z,46.07
2022-11-18T09:55:56.987Z,44.60
2022-11-18T09:58:36.437Z,46.13
2022-11-18T10:01:13.525Z,47.87
2022-11-18T10:03:42.271Z,47.40
2022-11-18T10:06:10.655Z,47.60
2022-11-18T10:09:24.233Z,42.50
2022-11-18T10:12:23.006Z,45.67
2022-11-18T10:15:21.854Z,49.67
2022-11-18T10:18:03.600Z,46.77
2022-11-18T10:20:37.886Z,41.57
2022-11-18T10:23:09.723Z,42.73
2022-11-18T10:25:38.247Z,45.03
2022-11-18T10:28:29.537Z,40.07
2022-11-18T10:31:13.254Z,45.27
2022-11-18T10:33:41.815Z,39.53
2022-11-18T10:36:19.208Z,38.73
2022-11-18T10:38:50.128Z,37.37
2022-11-18T10:41:22.003Z,43.67
2022-11-18T10:43:57.800Z,35.10
2022-11-18T10:46:39.383Z,35.60
2022-11-18T10:52:11.328Z,42.70
2022-11-18T10:54:40.239Z,37.80
2022-11-18T10:57:24.639Z,33.00
2022-11-18T10:59:56.612Z,31.73
2022-11-18T11:02:42.363Z,29.67
2022-11-18T11:05:24.798Z,28.47
2022-11-18T11:08:36.205Z,28.17
2022-11-18T11:11:06.086Z,25.37
2022-11-18T11:13:34.700Z,22.17
2022-11-18T11:16:07.418Z,22.63
2022-11-18T11:18:42.666Z,22.07
2022-11-18T11:21:25.208Z,19.00
2022-11-18T11:23:53.740Z,17.10
2022-11-18T11:30:05.530Z,18.40
2022-11-18T11:32:42.437Z,14.77
2022-11-18T11:35:31.199Z,17.17
2022-11-18T11:38:34.153Z,15.87
2022-11-18T11:41:02.525Z,17.47
2022-11-18T11:43:30.916Z,16.13
2022-11-18T11:46:08.961Z,17.20
2022-11-18T11:49:07.109Z,16.03
2022-11-18T11:51:59.335Z,16.57
2022-11-18T11:54:34.750Z,18.27
2022-11-18T11:57:45.470Z,19.77
2022-11-18T12:00:19.891Z,17.10
2022-11-18T12:03:38.420Z,19.90
2022-11-18T12:06:08.853Z,17.67
2022-11-18T12:08:38.694Z,17.13
2022-11-18T12:11:21.692Z,16.83
2022-11-18T12:14:30.387Z,18.20
2022-11-18T12:17:16.144Z,17.50
2022-11-18T12:19:44.784Z,18.67
2022-11-18T12:22:14.024Z,16.53
2022-11-18T12:24:44.158Z,16.03
2022-11-18T12:27:27.679Z,16.43
2022-11-18T12:30:00.058Z,18.10
2022-11-18T12:32:36.564Z,17.33
2022-11-18T12:35:29.470Z,20.67
2022-11-18T12:37:58.868Z,20.67
2022-11-18T12:40:52.256Z,22.33
2022-11-18T12:43:44.040Z,23.30
2022-11-18T12:46:41.405Z,24.50
2022-11-18T12:49:25.812Z,27.03
2022-11-18T12:51:59.998Z,27.13
2022-11-18T12:54:29.656Z,26.77
2022-11-18T12:57:03.143Z,27.97
2022-11-18T12:59:38.990Z,32.30
2022-11-18T13:02:17.473Z,28.23
2022-11-18T13:04:50.815Z,31.37
2022-11-18T13:07:44.371Z,28.10
2022-11-18T13:10:25.686Z,28.27
2022-11-18T13:12:54.979Z,30.13
2022-11-18T13:15:40.895Z,35.57
2022-11-18T13:18:22.005Z,31.97
2022-11-18T13:21:22.379Z,36.30
2022-11-18T13:23:57.654Z,34.00
2022-11-18T13:26:35.969Z,35.10
2022-11-18T13:29:30.051Z,38.30
2022-11-18T13:32:27.950Z,35.67
2022-11-18T13:35:00.229Z,39.00
2022-11-18T13:37:31.471Z,38.13
2022-11-18T13:40:00.008Z,36.27
2022-11-18T13:42:33.003Z,35.77
2022-11-18T13:45:07.235Z,33.70
2022-11-18T13:48:03.065Z,32.43
2022-11-18T13:50:47.380Z,31.93
2022-11-18T13:53:37.258Z,34.07
2022-11-18T13:56:19.439Z,33.17
2022-11-18T14:01:48.911Z,36.07
2022-11-18T14:04:24.241Z,36.90
2022-11-18T14:06:53.062Z,37.47
2022-11-18T14:09:32.472Z,39.20
2022-11-18T14:12:07.642Z,38.30
2022-11-18T14:14:38.782Z,39.10
2022-11-18T14:17:27.257Z,42.90
2022-11-18T14:20:02.366Z,38.33
2022-11-18T14:22:33.585Z,36.47
2022-11-18T14:25:25.464Z,39.30
2022-11-18T14:27:59.390Z,36.83
2022-11-18T14:30:38.886Z,39.57
2022-11-18T14:33:21.794Z,37.97
2022-11-18T14:36:03.599Z,42.77
2022-11-18T14:38:57.932Z,40.27
2022-11-18T14:41:50.278Z,44.80
2022-11-18T14:44:20.643Z,42.73
2022-11-18T14:46:56.620Z,45.87
2022-11-18T14:49:27.120Z,42.93
2022-11-18T14:51:56.532Z,39.20
2022-11-18T14:54:28.000Z,43.73
2022-11-18T14:57:07.364Z,44.97
2022-11-18T14:59:35.938Z,38.20
2022-11-18T15:02:04.458Z,42.27
2022-11-18T15:04:32.900Z,41.57
2022-11-18T15:07:01.364Z,39.73
2022-11-18T15:09:29.934Z,43.20
2022-11-18T15:11:58.343Z,41.40
2022-11-18T15:14:26.781Z,46.53
2022-11-18T15:16:55.915Z,39.97
2022-11-18T15:19:24.387Z,37.20
2022-11-18T15:21:52.802Z,39.60
2022-11-18T15:24:21.480Z,39.23
2022-11-18T15:26:50.398Z,37.50
2022-11-18T15:29:21.583Z,36.83
2022-11-18T15:31:50.574Z,35.17
2022-11-18T15:34:21.605Z,35.60
2022-11-18T15:36:50.609Z,37.43
2022-11-18T15:39:19.196Z,37.67
2022-11-18T15:41:47.670Z,37.70
2022-11-18T15:44:16.595Z,37.20
2022-11-18T15:46:47.954Z,38.33
2022-11-18T15:49:17.958Z,34.33
2022-11-18T15:51:46.499Z,33.90
2022-11-18T15:54:14.887Z,33.87
2022-11-18T15:56:43.383Z,37.73
2022-11-18T15:59:16.313Z,37.20
2022-11-18T16:01:49.045Z,36.57
2022-11-18T16:04:19.924Z,33.70
2022-11-18T16:06:48.860Z,37.13
2022-11-18T16:09:18.529Z,37.23
2022-11-18T16:12:04.514Z,35.80
2022-11-18T16:14:32.903Z,38.37
2022-11-18T16:17:01.329Z,37.33
2022-11-18T16:19:33.341Z,34.83
2022-11-18T16:22:01.800Z,36.33
2022-11-18T16:24:31.436Z,38.67
2022-11-18T16:26:59.927Z,40.50
2022-11-18T16:29:28.346Z,39.47
2022-11-18T16:31:56.861Z,42.03
2022-11-18T16:34:27.995Z,35.40
2022-11-18T16:36:59.703Z,38.13
2022-11-18T16:39:29.805Z,36.27
2022-11-18T16:42:08.004Z,42.37
2022-11-18T16:44:38.392Z,36.90
2022-11-18T16:47:14.294Z,39.07
2022-11-18T16:49:43.986Z,38.67
2022-11-18T16:54:48.890Z,34.30
2022-11-18T16:57:17.839Z,36.43
2022-11-18T16:59:46.467Z,38.50
2022-11-18T17:02:15.722Z,39.03
2022-11-18T17:04:44.686Z,34.73
2022-11-18T17:07:14.229Z,34.77
2022-11-18T17:09:42.745Z,35.93
2022-11-18T17:12:11.808Z,35.53
2022-11-18T17:14:40.334Z,36.50
2022-11-18T17:17:09.190Z,35.37
2022-11-18T17:19:37.870Z,34.47
2022-11-18T17:22:06.436Z,36.97
2022-11-18T17:24:34.901Z,37.23
2022-11-18T17:27:03.446Z,36.73
2022-11-18T17:29:33.180Z,38.47
2022-11-18T17:32:01.981Z,37.70
2022-11-18T17:34:30.420Z,36.93
2022-11-18T17:37:04.926Z,36.67
2022-11-18T17:39:35.341Z,38.00
2022-11-18T17:42:15.710Z,35.93
2022-11-18T17:44:44.532Z,33.33
2022-11-18T17:47:13.080Z,35.97
2022-11-18T17:49:41.571Z,35.43
2022-11-18T17:52:09.911Z,35.07
2022-11-18T17:54:39.036Z,30.97
2022-11-18T17:57:07.530Z,32.23
2022-11-18T17:59:36.008Z,28.77
2022-11-18T18:02:04.514Z,27.00
2022-11-18T18:04:32.816Z,30.93
2022-11-18T18:07:01.244Z,31.03
2022-11-18T18:09:31.353Z,26.70
2022-11-18T18:12:21.537Z,30.23
2022-11-18T18:14:49.172Z,28.07
2022-11-18T18:17:18.157Z,26.37
2022-11-18T18:19:46.724Z,25.23
2022-11-18T18:22:15.325Z,26.57
2022-11-18T18:24:44.014Z,24.07
2022-11-18T18:27:12.462Z,24.57
2022-11-18T18:29:43.495Z,24.67
2022-11-18T18:32:12.121Z,23.73
2022-11-18T18:34:41.457Z,24.50
2022-11-18T18:37:10.343Z,25.57
2022-11-18T18:39:38.726Z,27.30
2022-11-18T18:42:07.266Z,19.23
2022-11-18T18:44:52.250Z,19.90
2022-11-18T18:47:20.706Z,19.33
2022-11-18T18:49:49.163Z,18.67
2022-11-18T18:52:17.672Z,18.23
2022-11-18T18:54:46.238Z,19.00
2022-11-18T18:57:14.708Z,17.83
2022-11-18T18:59:45.923Z,17.73
2022-11-18T19:02:14.859Z,16.30
2022-11-18T19:04:47.526Z,17.93
2022-11-18T19:07:17.021Z,15.03
2022-11-18T19:09:45.644Z,14.50
2022-11-18T19:12:31.477Z,15.27
2022-11-18T19:15:01.992Z,15.50
2022-11-18T19:17:30.578Z,14.17
2022-11-18T19:20:27.429Z,14.60
2022-11-18T19:22:55.985Z,14.87
2022-11-18T19:25:24.678Z,14.57
2022-11-18T19:27:53.136Z,12.13
2022-11-18T19:30:21.698Z,13.93
2022-11-18T19:32:50.967Z,14.00
2022-11-18T19:35:19.871Z,13.17
2022-11-18T19:37:48.549Z,12.43
2022-11-18T19:40:17.405Z,11.27
2022-11-18T19:42:46.126Z,13.10
2022-11-18T19:45:14.845Z,13.43
2022-11-18T19:47:43.945Z,14.43
2022-11-18T19:50:12.502Z,13.40
2022-11-18T19:52:41.042Z,13.27
2022-11-18T19:55:09.829Z,13.93
2022-11-18T19:57:38.464Z,13.67
2022-11-18T20:00:07.578Z,12.93
2022-11-18T20:02:36.172Z,12.93
2022-11-18T20:05:22.343Z,11.47
2022-11-18T20:07:50.952Z,11.37
2022-11-18T20:10:19.554Z,12.57
2022-11-18T20:12:48.845Z,12.43
2022-11-18T20:15:17.548Z,11.60
2022-11-18T20:17:46.170Z,12.30
2022-11-18T20:20:15.728Z,14.37
2022-11-18T20:22:44.214Z,11.03
2022-11-18T20:25:14.296Z,10.77
2022-11-18T20:27:42.963Z,10.30
2022-11-18T20:30:12.159Z,11.87
2022-11-18T20:32:40.648Z,12.77
2022-11-18T20:35:13.170Z,11.33
2022-11-18T20:37:43.529Z,12.23
2022-11-18T20:40:12.949Z,12.73
2022-11-18T20:43:00.644Z,12.33
2022-11-18T20:45:29.225Z,11.97
2022-11-18T20:47:57.672Z,10.87
2022-11-18T20:50:26.318Z,13.27
2022-11-18T20:52:54.913Z,12.30
2022-11-18T20:55:23.371Z,10.03
2022-11-18T20:57:51.821Z,12.67
2022-11-18T21:00:20.296Z,12.40
2022-11-18T21:02:49.336Z,10.33
2022-11-18T21:05:17.984Z,9.47
2022-11-18T21:07:46.445Z,8.93
2022-11-18T21:10:15.042Z,11.03
2022-11-18T21:13:03.507Z,9.23
2022-11-18T21:15:31.040Z,10.40
2022-11-18T21:17:59.532Z,9.77
2022-11-18T21:20:45.362Z,9.93
2022-11-18T21:23:14.266Z,9.43
2022-11-18T21:25:43.242Z,10.63
2022-11-18T21:28:15.053Z,9.30
2022-11-18T21:30:43.665Z,12.67
2022-11-18T21:33:13.325Z,10.60
2022-11-18T21:35:41.810Z,10.43
2022-11-18T21:38:10.250Z,11.93
2022-11-18T21:40:38.708Z,10.47
2022-11-18T21:43:09.823Z,9.47
2022-11-18T21:45:38.289Z,10.57
2022-11-18T21:48:07.366Z,9.20
2022-11-18T21:50:35.959Z,11.70
2022-11-18T21:53:04.443Z,9.43
2022-11-18T21:55:33.079Z,11.17
2022-11-18T21:58:04.141Z,9.90
2022-11-18T22:00:32.897Z,11.10
2022-11-18T22:03:01.552Z,10.80
2022-11-18T22:05:30.020Z,10.87
2022-11-18T22:07:58.615Z,11.00
2022-11-18T22:10:27.115Z,10.30
2022-11-18T22:12:55.751Z,9.23
2022-11-18T22:15:25.138Z,10.60
2022-11-18T22:17:56.078Z,10.17
2022-11-18T22:20:24.501Z,10.67
2022-11-18T22:22:52.953Z,10.60
2022-11-18T22:25:21.084Z,10.63
2022-11-18T22:27:52.122Z,23.13
2022-11-18T22:30:20.793Z,11.13
2022-11-18T22:32:49.534Z,10.80
2022-11-18T22:35:18.036Z,12.40
2022-11-18T22:37:46.671Z,10.27
2022-11-18T22:40:15.302Z,11.63
2022-11-18T22:42:48.061Z,8.77
2022-11-18T22:45:17.641Z,9.90
2022-11-18T22:47:46.123Z,9.83
2022-11-18T22:50:14.736Z,9.47
2022-11-18T22:52:43.205Z,8.53
2022-11-18T22:55:12.363Z,9.07
2022-11-18T22:57:40.944Z,11.67
2022-11-18T23:00:10.231Z,9.70
2022-11-18T23:02:38.654Z,8.77
2022-11-18T23:05:07.601Z,8.97
2022-11-18T23:07:36.414Z,9.27
2022-11-18T23:10:05.183Z,14.30
2022-11-18T23:12:56.195Z,9.43
2022-11-18T23:15:24.603Z,9.80
2022-11-18T23:17:53.322Z,9.77
2022-11-18T23:20:21.710Z,10.37
2022-11-18T23:22:50.522Z,8.13
2022-11-18T23:25:18.956Z,8.17
2022-11-18T23:27:50.391Z,9.80
2022-11-18T23:30:22.510Z,10.30
2022-11-18T23:32:51.544Z,8.20
2022-11-18T23:35:19.998Z,10.27
2022-11-18T23:37:49.127Z,9.73
2022-11-18T23:40:17.797Z,9.43
2022-11-18T23:42:46.493Z,9.87
2022-11-18T23:45:15.126Z,11.07
2022-11-18T23:47:43.647Z,8.77
2022-11-18T23:50:11.821Z,9.87
2022-11-18T23:52:42.038Z,9.93
2022-11-18T23:55:11.321Z,9.20
2022-11-18T23:57:39.709Z,8.53
